Arkadiusz Frankowski

Chefscout - Podbeskidzie
23 Jan 2028
Sonntag
Verarbeitung

Persönlichkeit

Anpassungsfähigkeit (2) Ehrgeiz (5) Kontroverse (19) Loyalität (18) Druck (19) Professionalität (17) Fairness (8) Temperament (17)

Profil

Trainerstil Demokratisch
Lizenz Kontinentale A
Entschlossenheit 7
Menschenführung 3
Motivation 7
Disziplin 4
Arbeitszufriedenheit
100%
Ermüdung
0%
Rolle Chefscout
Gehalt 53.0K p/W
Vertrag 14.03.2028

Leistung

Verhalten Gut
Trainingseffektivität
40%
Spielerentwicklung
35%
Verletzungsprävention
15%
Taktische Umsetzung
45%

Letzte Ereignisse

Nahm an einer Scouting-Besprechung teil jetzt
Empfahl ein Transferziel jetzt
Vertragsverhandlung begonnen jetzt
Nimmt an Fortbildung teil jetzt
Vertragsverhandlung begonnen jetzt
Nimmt an Fortbildung teil jetzt
Vertragsverhandlung begonnen jetzt
Nimmt an Fortbildung teil jetzt

Aktuell beobachtet

147
Spieler Verein Status Fähigkeit Vertrauen Beobachtet Zuletzt beobachtet Letzte Stimme
Mateo Carrizo Pogon Aktiv 89 / 105 62% 1 02.01.2028 Befürworten
Jhoao Rodríguez Deportes Quindio Aktiv 126 / 105 40% 3 31.12.2027 -
Jefry Zapata Aldosivi Aktiv 134 / 124 40% 2 31.12.2027 -
Abubakar Garba Nasarawa United Aktiv 90 / 90 40% 3 26.12.2027 -
Tomás Fernández Aldosivi Aktiv 125 / 113 40% 2 26.12.2027 -
Sunday Megwo Abia Warriors Aktiv 98 / 92 40% 3 25.12.2027 -
Max Fenger Helsingborg Aktiv 131 / 138 40% 2 25.12.2027 -
Chineme Chinonso Ikorodu City Aktiv 96 / 95 40% 5 24.12.2027 -
Favio Cabral Mitre Aktiv 117 / 116 40% 1 24.12.2027 -
Timothy Zechariah Rivers United Aktiv 93 / 93 40% 5 23.12.2027 -
Alejo Cruz Juventud Aktiv 131 / 126 40% 3 23.12.2027 -
Lisandro Cabrera Maipú Aktiv 127 / 127 40% 6 22.12.2027 -
Juan Mendoza Güemes Aktiv 103 / 112 40% 3 20.12.2027 -
Bruno Larregui Juventud Aktiv 117 / 131 40% 5 20.12.2027 -
Jalal Abdullai Molde Aktiv 116 / 115 40% 2 16.12.2027 -
Esteban da Silva Racing Aktiv 99 / 113 40% 1 16.12.2027 -
Fernando Mimbacas Juventud Aktiv 117 / 103 40% 3 14.12.2027 -
Joel Orlando Almagro Aktiv 101 / 111 40% 2 10.12.2027 -
Chisom Orji Warri Wolves Aktiv 96 / 90 40% 1 10.12.2027 -
Enzo González Defensores Aktiv 118 / 104 40% 2 09.12.2027 -
Ibrahim Yahaya Barau Aktiv 80 / 91 40% 3 08.12.2027 -
Chukwuemeka Obioma Abia Warriors Aktiv 96 / 89 40% 1 08.12.2027 -
Germán Cervera Alvarado Aktiv 110 / 98 40% 2 06.12.2027 -
Daniel Barrea Godoy Cruz Aktiv 121 / 112 40% 5 04.12.2027 -
Juan David Rueda Alianza Petrolera Aktiv 121 / 112 40% 2 01.12.2027 -
Marco Miori Alvarado Aktiv 115 / 115 40% 1 01.12.2027 -
Maren Kefas Plateau United Aktiv 105 / 109 40% 2 29.11.2027 -
Alexander Díaz Deportivo Riestra Aktiv 106 / 106 40% 1 29.11.2027 -
Alejandro Rincon Llaneros Aktiv 112 / 99 40% 2 28.11.2027 -
Stanley Amon Bayelsa United Aktiv 101 / 96 40% 2 28.11.2027 -
Ronaldo Peña Deportivo Lara Aktiv 112 / 95 40% 2 27.11.2027 -
Santiago Apa All Boys Aktiv 100 / 104 40% 1 26.11.2027 -
Facundo Krüger Temperley Aktiv 124 / 119 40% 2 25.11.2027 -
Okardi Inikurogha Bayelsa United Aktiv 81 / 82 40% 1 24.11.2027 -
Yuri Tanque Criciuma Aktiv 131 / 134 40% 1 23.11.2027 -
Leandro Suhr Boston River Aktiv 107 / 104 40% 4 22.11.2027 -
Xavier Biscayzacú Defensor Sporting Aktiv 145 / 132 40% 4 21.11.2027 -
Josephat Lopaga Kakamega Homeboyz Aktiv 86 / 90 40% 2 21.11.2027 -
Genaro Rossi San Martín SJ Aktiv 103 / 119 40% 2 17.11.2027 -
Augusto Berrondo Tristán Suárez Aktiv 112 / 108 40% 3 17.11.2027 -
Peter Christiansen Haugesund Aktiv 130 / 113 40% 1 15.11.2027 -
Nicolás Cordero Aldosivi Aktiv 113 / 112 40% 1 14.11.2027 -
Umar Ada Nasarawa United Aktiv 79 / 85 40% 1 11.11.2027 -
Máximo Alonso Central Espanol Aktiv 124 / 121 40% 1 11.11.2027 -
Ismail Sarki Niger Tornadoes Aktiv 103 / 98 40% 1 09.11.2027 -
Joseph Atule Barau Aktiv 104 / 100 40% 1 07.11.2027 -
Jonathan Cañete Portuguesa Aktiv 120 / 109 40% 1 06.11.2027 -
Tobías Cervera Gimnasia y Esgrima Aktiv 124 / 132 40% 1 05.11.2027 -
Maclyn Biokpo Jenewari Rivers United Aktiv 113 / 113 40% 1 04.11.2027 -
Gianluca Pugliese Güemes Aktiv 119 / 112 40% 1 02.11.2027 -
Lucas Pedraza Defensores Unidos Aktiv 111 / 90 40% 1 31.10.2027 -
Luca Franco Arsenal Aktiv 119 / 118 40% 2 30.10.2027 -
Mauricio Márquez Caracas Aktiv 121 / 114 40% 1 28.10.2027 -
Renzo Reynaga Patronato Aktiv 128 / 114 40% 3 26.10.2027 -
José Barreto Quilmes Aktiv 113 / 103 40% 1 26.10.2027 -
Santiago Sala Güemes Aktiv 107 / 126 40% 2 22.10.2027 -
Bautista Tomatis Racing Aktiv 119 / 115 40% 1 22.10.2027 -
Shuaibu Ibrahim Wikki Tourists Aktiv 94 / 102 40% 2 21.10.2027 -
Auwalu Ali Malam Kano Pillars Aktiv 82 / 83 40% 3 19.10.2027 -
Cristian Barros Cerro Aktiv 104 / 112 40% 2 12.10.2027 -
Daniel Karlsbakk Sarpsborg 08 Aktiv 123 / 124 40% 1 10.10.2027 -
Sagir Arce Saburtalo Aktiv 95 / 104 40% 2 08.10.2027 -
Samuel Anakwe Remo Stars Aktiv 115 / 97 40% 1 03.10.2027 -
Santiago Rodríguez Gimnasia y Esgrima Aktiv 117 / 131 40% 1 30.09.2027 -
Facundo Milán Central Espanol Aktiv 95 / 93 40% 1 29.09.2027 -
Sergio Riffo Kolkheti Aktiv 78 / 98 40% 1 26.09.2027 -
Agustín Alaniz Rentistas Aktiv 128 / 118 40% 1 26.09.2027 -
Samson Olasupo Remo Stars Aktiv 104 / 92 40% 1 24.09.2027 -
Yegor Kortsov Dinamo Brest Aktiv 118 / 116 40% 1 20.09.2027 -
Lucas Acosta Liverpool Montevideo Aktiv 96 / 109 40% 1 15.09.2027 -
Agustín Lavezzi Quilmes Aktiv 100 / 119 40% 1 14.09.2027 -
Rodrigo Pollero Deportivo Tachira Aktiv 120 / 116 40% 2 09.09.2027 -
Joaquín Zeballos Wanderers Aktiv 126 / 107 40% 1 06.09.2027 -
Esteban Obregón Montevideo City Torque Aktiv 101 / 109 40% 1 06.09.2027 -
Callum Stead Barnet Aktiv 95 / 90 40% 1 09.08.2027 -
Callum Lang Preston Aktiv 124 / 131 40% 4 28.07.2027 -
Richard Koné Queens Park Rangers Aktiv 131 / 130 40% 2 22.07.2027 -
Abu Kamara Portsmouth Aktiv 120 / 119 40% 1 22.07.2027 -
Sam Bell Bristol City Aktiv 118 / 112 40% 3 12.07.2027 -
Danny Butterworth Accrington Stanley Aktiv 89 / 94 40% 1 05.07.2027 -
Tyreece Campbell Charlton Athletic Aktiv 125 / 118 40% 3 28.06.2027 -
Mathias Kvistgaarden Norwich City Aktiv 113 / 116 40% 2 21.06.2027 -
Aidomo Emakhu Oxford United Aktiv 135 / 118 40% 3 14.06.2027 -
Mateusz Skoczylas Cracovia Aktiv 86 / 99 55% 1 14.06.2027 -
Dale Taylor Blackpool Aktiv 93 / 119 40% 3 30.05.2027 -
Simone Mazzocchi Cosenza Aktiv 120 / 115 40% 2 30.05.2027 -
Giacomo Zecca Torres Aktiv 101 / 117 40% 1 29.05.2027 -
John McAtee Leyton Orient Aktiv 116 / 106 40% 2 22.05.2027 -
Matty Stevens AFC Wimbledon Aktiv 103 / 92 40% 1 22.05.2027 -
Aaron Drinan Swindon Town Aktiv 108 / 93 40% 3 21.05.2027 -
Sam Greenwood Bristol City Aktiv 107 / 119 40% 5 18.05.2027 -
Fábio Tavares Burton Albion Aktiv 87 / 105 40% 2 18.05.2027 -
Kyle Wootton Stockport County Aktiv 140 / 120 40% 5 17.05.2027 -
Daniel Udoh Salford City Aktiv 98 / 112 40% 2 16.05.2027 -
Mees Rijks Bristol Rovers Aktiv 115 / 113 40% 2 15.05.2027 -
Sam Nombe Milton Keynes Dons Aktiv 105 / 118 40% 1 13.05.2027 -
Luca Moro Padova Aktiv 128 / 107 40% 1 12.05.2027 -
Malik Mothersille Stockport County Aktiv 126 / 115 40% 4 09.05.2027 -
Simone Rabbi Ravenna Aktiv 106 / 98 40% 2 09.05.2027 -
Marezi Portsmouth Aktiv 107 / 135 40% 1 05.05.2027 -
Yousef Salech Cardiff City Aktiv 123 / 117 40% 4 04.05.2027 -
Oli McBurnie Hull City Aktiv 130 / 142 40% 3 03.05.2027 -
Ryan Graydon Salford City Aktiv 101 / 99 40% 1 02.05.2027 -
Rocco Vata Watford Aktiv 109 / 133 40% 2 01.05.2027 -
Josh Coburn Millwall Aktiv 107 / 126 40% 3 30.04.2027 -
Calum Kavanagh Oldham Athletic Aktiv 101 / 96 40% 1 30.04.2027 -
Rui Costa Port Vale Aktiv 126 / 102 40% 4 28.04.2027 -
Stephen Amankona Aduana Stars Aktiv 77 / 101 40% 3 27.04.2027 -
Andri Guðjohnsen Blackburn Rovers Aktiv 116 / 134 40% 1 16.04.2027 -
Bernat Guiu Virtus Entella Aktiv 136 / 120 40% 1 16.04.2027 -
Ettore Gliozzi Mantova Aktiv 129 / 127 40% 1 11.04.2027 -
Etiosa Ighodaro Kaizer Chiefs Aktiv 112 / 124 40% 2 10.04.2027 -
George Brown Sheffield Wednesday Aktiv 90 / 97 40% 1 09.04.2027 -
Vladislav Blănuţă Lechia Aktiv 118 / 122 40% 6 07.04.2027 -
Rhian Brewster Oleksandriya Aktiv 122 / 124 40% 3 07.04.2027 -
Thulani Dala Free State Stars Aktiv 111 / 98 40% 3 02.04.2027 -
Lorent Tolaj Plymouth Argyle Aktiv 133 / 125 40% 2 01.04.2027 -
Santiago Pierotti Lecce Aktiv 122 / 131 40% 1 01.04.2027 -
Bradley Fink Wycombe Wanderers Aktiv 112 / 112 40% 3 29.03.2027 -
Tyrese Shade Burton Albion Aktiv 91 / 96 40% 1 29.03.2027 -
Gabriel Charpentier Cracovia Aktiv 109 / 117 40% 3 19.03.2027 -
Harry Cornick AFC Wimbledon Aktiv 102 / 94 40% 1 14.03.2027 -
Peter Valjent FK Senica Aktiv 123 / 120 40% 1 13.03.2027 -
Erick Dolly Black Aces Aktiv 97 / 120 40% 2 11.03.2027 -
Patrick Cutrone Monza Aktiv 123 / 126 40% 1 04.03.2027 -
Elijah Adebayo Luton Town Aktiv 124 / 117 40% 1 01.03.2027 -
Camillo Tavernelli Arezzo Aktiv 124 / 117 40% 1 26.02.2027 -
Stephen Humphrys Bradford City Aktiv 128 / 106 40% 3 22.02.2027 -
Will Swan Bradford City Aktiv 123 / 99 40% 1 21.02.2027 -
Bohdan Viunnyk Lechia Aktiv 119 / 111 40% 1 15.02.2027 -
Armstrong Oko-Flex Levski Aktiv 117 / 125 40% 1 13.02.2027 -
Marco Tumminello Benevento Aktiv 127 / 111 40% 1 13.02.2027 -
Samuel Kalu Botev Plovdiv Aktiv 115 / 123 40% 1 12.02.2027 -
Martin Sekulić Ural Aktiv 99 / 116 40% 1 11.02.2027 -
Mohamed Konaté Akhmat Grozny Aktiv 118 / 106 40% 1 08.02.2027 -
Jacques Siwe Rubin Aktiv 106 / 119 40% 1 08.02.2027 -
Yeangel Montero Naxxar Lions Aktiv 125 / 101 40% 1 05.02.2027 -
Rifet Kapić Lechia Aktiv 124 / 121 40% 2 12.09.2026 -
Santiago Rodríguez Columbus Crew Aktiv 129 / 115 40% 1 12.09.2026 -
Brandon Vázquez Austin FC Aktiv 113 / 130 40% 1 10.09.2026 -
Rui Modesto Vancouver Whitecaps Aktiv 118 / 126 40% 1 08.09.2026 -
Silvan Hefti DC United Aktiv 103 / 112 40% 1 08.09.2026 -
Hansel Zapata Arsenal Tula Aktiv 103 / 118 40% 1 26.08.2026 -
José Balza Deportivo Tachira Aktiv 125 / 106 40% 1 26.08.2026 -
Jordan Morris Seattle Sounders Aktiv 147 / 116 40% 1 17.08.2026 -
Kahveh Zahiroleslam Cracovia Aktiv 113 / 105 40% 1 11.08.2026 -
Gaspar Gentile Alianza Lima Aktiv 125 / 127 40% 1 03.08.2026 -